Haggerty Girls — WDG9740 — position and weather

sailwx.info

Track history (hours):
 
Tides and Currents Weather Stations Pressure Air Temp Water Temp Dewpoint Dewpoint Depression Visibility Wind Speed Wind Dir Waves Ship Positions

Haggerty Girls

Owner: REINAUER TRANSPORTATION CO.,LLC, STATEN ISLAND, NY. More information available from US FCC via Universal Licensing System and Coast Guard Vessel Documentation Center.

Last reported at 2018-Apr-22 22:52 UTC. Time now 2018-Apr-24 02:22 UTC.
Position N 40°49' W 073°58'.

Length 146 m; draft 7.5 m.

Type: . MMSI: 367590780.

Date/timePositionNaut miles runAvg speedWind from/ knotsBaromVisibWave heightAir tempDewpointWater temp
2018-Apr-22 22:52N 40°49' W 073°58'3 8.2
2018-Apr-22 22:30N 40°47' W 074°00'4 8.2
2018-Apr-22 22:00N 40°43' W 074°01'4 8.4
2018-Apr-22 21:30N 40°39' W 074°04'1 2.0
2018-Apr-22 21:00N 40°39' W 074°05'0 0.0
2018-Apr-22 20:30N 40°39' W 074°05'0 0.0
2018-Apr-22 20:00N 40°39' W 074°05'0 0.0
2018-Apr-22 19:30N 40°39' W 074°05'0 0.0
2018-Apr-22 19:00N 40°39' W 074°05'0 0.0
2018-Apr-22 18:30N 40°39' W 074°05'1 1.5
2018-Apr-22 18:00N 40°39' W 074°06'1 2.5
2018-Apr-22 17:25N 40°38' W 074°08'0 0.0
2018-Apr-22 16:58N 40°38' W 074°08'0 0.0
2018-Apr-22 16:29N 40°38' W 074°08'2 4.1
2018-Apr-22 15:58N 40°39' W 074°05'0 0.0
2018-Apr-22 15:28N 40°39' W 074°05'0 0.0
2018-Apr-22 14:58N 40°39' W 074°05'0 0.0
2018-Apr-22 14:28N 40°39' W 074°05'0 0.0
2018-Apr-22 13:58N 40°39' W 074°05'0 0.0
2018-Apr-22 13:28N 40°39' W 074°05'0 0.0
2018-Apr-22 12:58N 40°39' W 074°05'0 0.0
2018-Apr-22 12:28N 40°39' W 074°05'0 0.0
2018-Apr-22 11:58N 40°39' W 074°05'0 0.0
2018-Apr-22 11:28N 40°39' W 074°05'0 0.0
2018-Apr-22 10:58N 40°39' W 074°05'0 0.0
2018-Apr-22 10:28N 40°39' W 074°05'0 0.0
2018-Apr-22 09:58N 40°39' W 074°05'0 0.0
2018-Apr-22 09:28N 40°39' W 074°05'0 0.0
2018-Apr-22 08:58N 40°39' W 074°05'0 0.0
2018-Apr-22 08:28N 40°39' W 074°05'0 0.0
2018-Apr-22 07:58N 40°39' W 074°05'0 0.0
2018-Apr-22 07:28N 40°39' W 074°05'0 0.0
2018-Apr-22 06:58N 40°39' W 074°05'0 0.0
2018-Apr-22 06:28N 40°39' W 074°05'0 0.0
2018-Apr-22 05:58N 40°39' W 074°05'0 0.0
2018-Apr-22 05:28N 40°39' W 074°05'0 0.0
2018-Apr-22 04:58N 40°39' W 074°05'0 0.0
2018-Apr-22 04:28N 40°39' W 074°05'0 0.0
2018-Apr-22 03:58N 40°39' W 074°05'0 0.0
2018-Apr-22 03:28N 40°39' W 074°05'0 0.0
2018-Apr-22 02:58N 40°39' W 074°05'0 0.0
2018-Apr-22 02:28N 40°39' W 074°05'0 0.0
2018-Apr-22 01:58N 40°39' W 074°05'0 0.0
2018-Apr-22 01:28N 40°39' W 074°05'0 0.0
2018-Apr-22 00:58N 40°39' W 074°05'0 0.0
2018-Apr-22 00:28N 40°39' W 074°05'0 0.0
2018-Apr-21 23:58N 40°39' W 074°05'0 0.0
2018-Apr-21 23:28N 40°39' W 074°05'0 0.0
2018-Apr-21 22:58N 40°39' W 074°05'0 0.0
2018-Apr-21 22:31N 40°39' W 074°05'0 0.0
2018-Apr-21 21:58N 40°39' W 074°05'0 0.0
2018-Apr-21 21:28N 40°39' W 074°05'0 0.0
2018-Apr-21 20:58N 40°39' W 074°05'0 0.0
2018-Apr-21 20:28N 40°39' W 074°05'0 0.0
2018-Apr-21 19:58N 40°39' W 074°05'0 0.0
2018-Apr-21 19:28N 40°39' W 074°05'0 0.0
2018-Apr-21 18:58N 40°39' W 074°05'0 0.0
2018-Apr-21 18:31N 40°39' W 074°05'0 0.0
2018-Apr-21 17:58N 40°39' W 074°05'0 0.0
2018-Apr-21 17:28N 40°39' W 074°05'0 0.0
2018-Apr-21 17:01N 40°39' W 074°05'0 0.0
2018-Apr-21 16:31N 40°39' W 074°05'0 0.0
2018-Apr-21 16:01N 40°39' W 074°05'0 0.0
2018-Apr-21 15:28N 40°39' W 074°05'0 0.0
2018-Apr-21 15:00N 40°39' W 074°05'0 0.0
2018-Apr-21 14:31N 40°39' W 074°05'0 0.0
2018-Apr-21 14:00N 40°39' W 074°05'0 0.0
2018-Apr-21 13:28N 40°39' W 074°05'0 0.0
2018-Apr-21 12:58N 40°39' W 074°05'0 0.0
2018-Apr-21 12:28N 40°39' W 074°05'0 0.0
2018-Apr-21 11:58N 40°39' W 074°05'0 0.0
2018-Apr-21 11:28N 40°39' W 074°05'0 0.0
2018-Apr-21 11:00N 40°39' W 074°05'0 0.0
2018-Apr-21 10:27N 40°39' W 074°05'0 0.0
2018-Apr-21 09:58N 40°39' W 074°05'0 0.0
2018-Apr-21 09:31N 40°39' W 074°05'0 0.0
2018-Apr-21 09:01N 40°39' W 074°05'0 0.0
2018-Apr-21 08:30N 40°39' W 074°05'0 0.0
2018-Apr-21 07:58N 40°39' W 074°05'0 0.0
2018-Apr-21 07:28N 40°39' W 074°05'0 0.0
2018-Apr-21 06:57N 40°39' W 074°05'0 0.0
2018-Apr-21 06:31N 40°39' W 074°05'0 0.0
2018-Apr-21 05:58N 40°39' W 074°05'0 0.0
2018-Apr-21 05:31N 40°39' W 074°05'0 0.0
2018-Apr-21 05:01N 40°39' W 074°05'0 0.0
2018-Apr-21 04:28N 40°39' W 074°05'0 0.0
2018-Apr-21 04:01N 40°39' W 074°05'0 0.0
2018-Apr-21 03:30N 40°39' W 074°05'0 0.0
2018-Apr-21 02:57N 40°39' W 074°05'0 0.0
2018-Apr-21 02:30N 40°39' W 074°05'0 0.0
2018-Apr-21 02:00N 40°39' W 074°05'0 0.0
2018-Apr-21 01:30N 40°39' W 074°05'0 0.0
2018-Apr-21 01:00N 40°39' W 074°05'0 0.0
2018-Apr-21 00:30N 40°39' W 074°05'0 0.0
2018-Apr-21 00:00N 40°39' W 074°05'0 0.0
2018-Apr-20 23:30N 40°39' W 074°05'0 0.0
2018-Apr-20 23:00N 40°39' W 074°05'1 1.2
2018-Apr-20 22:30N 40°39' W 074°04'2 4.2
2018-Apr-20 22:00N 40°40' W 074°02'0 0.0
2018-Apr-20 21:30N 40°40' W 074°02'0 0.2
2018-Apr-20 21:01N 40°40' W 074°02'3 5.8
2018-Apr-20 20:30N 40°39' W 074°06'3 5.1
2018-Apr-20 20:00N 40°39' W 074°09'1 1.8
2018-Apr-20 19:30N 40°38' W 074°08'0 0.0
2018-Apr-20 19:00N 40°38' W 074°08'0 0.0
2018-Apr-20 18:30N 40°38' W 074°08'0 0.0
2018-Apr-20 18:00N 40°38' W 074°08'0 0.0
2018-Apr-20 17:30N 40°38' W 074°08'0 0.0
2018-Apr-20 17:00N 40°38' W 074°08'0 0.0
2018-Apr-20 16:30N 40°38' W 074°08'0 0.0
2018-Apr-20 16:00N 40°38' W 074°08'2 3.0
2018-Apr-20 15:30N 40°39' W 074°06'3 6.0
2018-Apr-20 14:57N 40°40' W 074°02'0 0.0
2018-Apr-20 14:30N 40°40' W 074°02'0 0.1
2018-Apr-20 14:00N 40°40' W 074°02'0 0.0
2018-Apr-20 13:27N 40°40' W 074°02'0 0.0
2018-Apr-20 13:00N 40°40' W 074°02'0 0.0
2018-Apr-20 12:30N 40°40' W 074°02'0 0.0
2018-Apr-20 12:00N 40°40' W 074°02'0 0.0
2018-Apr-20 11:30N 40°40' W 074°02'0 0.0
2018-Apr-20 11:00N 40°40' W 074°02'0 0.0
2018-Apr-20 10:30N 40°40' W 074°02'0 0.0
2018-Apr-20 10:00N 40°40' W 074°02'0 0.0
2018-Apr-20 09:30N 40°40' W 074°02'0 0.0
2018-Apr-20 09:00N 40°40' W 074°02'0 0.0
2018-Apr-20 08:30N 40°40' W 074°02'0 0.0
2018-Apr-20 08:00N 40°40' W 074°02'0 0.1
2018-Apr-20 07:30N 40°40' W 074°02'0 0.1
2018-Apr-20 07:00N 40°40' W 074°02'3 5.9
2018-Apr-20 06:30N 40°43' W 074°01'5 9.6
2018-Apr-20 06:00N 40°48' W 073°59'4 8.9
2018-Apr-20 05:30N 40°52' W 073°57'4 8.4
2018-Apr-20 04:59N 40°56' W 073°55'2 0.1
2018-Apr-19 00:43N 40°57' W 073°54'2 9.6
2018-Apr-19 00:29N 40°55' W 073°55'5 9.2
2018-Apr-19 00:00N 40°51' W 073°57'4 8.8
2018-Apr-18 23:30N 40°47' W 073°60'4 7.7
2018-Apr-18 23:00N 40°43' W 074°01'4 7.5
2018-Apr-18 22:30N 40°40' W 074°03'3 6.9
2018-Apr-18 22:00N 40°39' W 074°07'4 7.3
2018-Apr-18 21:30N 40°38' W 074°12'3 5.2
2018-Apr-18 20:59N 40°35' W 074°12'0 0.0
2018-Apr-18 20:30N 40°35' W 074°12'0 0.0
2018-Apr-18 19:59N 40°35' W 074°12'0 0.0
2018-Apr-18 19:30N 40°35' W 074°12'0 0.0
2018-Apr-18 18:58N 40°35' W 074°12'0 0.0
2018-Apr-18 18:29N 40°35' W 074°12'0 0.0
2018-Apr-18 18:00N 40°35' W 074°12'0 0.0
2018-Apr-18 17:30N 40°35' W 074°12'0 0.0
2018-Apr-18 17:00N 40°35' W 074°12'0 0.0
2018-Apr-18 16:30N 40°35' W 074°12'0 0.0
2018-Apr-18 16:00N 40°35' W 074°12'0 0.0
2018-Apr-18 15:30N 40°35' W 074°12'0 0.0
2018-Apr-18 15:00N 40°35' W 074°12'0 0.0
2018-Apr-18 14:30N 40°35' W 074°12'0 0.0
2018-Apr-18 14:00N 40°35' W 074°12'0 0.0
2018-Apr-18 13:30N 40°35' W 074°12'0 0.0
2018-Apr-18 13:00N 40°35' W 074°12'0 0.0
2018-Apr-18 12:30N 40°35' W 074°12'0 0.0
2018-Apr-18 11:59N 40°35' W 074°12'0 0.0
2018-Apr-18 11:30N 40°35' W 074°12'0 0.0
2018-Apr-18 11:00N 40°35' W 074°12'0 0.0
2018-Apr-18 10:30N 40°35' W 074°12'0 0.0
2018-Apr-18 09:59N 40°35' W 074°12'0 0.0
2018-Apr-18 09:29N 40°35' W 074°12'0 0.0
2018-Apr-18 09:00N 40°35' W 074°12'0 0.0
2018-Apr-18 08:30N 40°35' W 074°12'0 0.0
2018-Apr-18 08:00N 40°35' W 074°12'0 0.0
2018-Apr-18 07:30N 40°35' W 074°12'0 0.0
2018-Apr-18 07:00N 40°35' W 074°12'0 0.0
2018-Apr-18 06:29N 40°35' W 074°12'0 0.0
2018-Apr-18 06:00N 40°35' W 074°12'0 0.0
2018-Apr-18 05:29N 40°35' W 074°12'0 0.0
2018-Apr-18 04:57N 40°35' W 074°12'0 0.0
2018-Apr-18 04:29N 40°35' W 074°12'0 0.0
2018-Apr-18 04:00N 40°35' W 074°12'0 0.0
2018-Apr-18 03:30N 40°35' W 074°12'0 0.0
2018-Apr-18 03:00N 40°35' W 074°12'0 0.0
2018-Apr-18 02:30N 40°35' W 074°12'0 0.0
2018-Apr-18 02:00N 40°35' W 074°12'0 0.0
2018-Apr-18 01:30N 40°35' W 074°12'0 0.0
2018-Apr-18 01:00N 40°35' W 074°12'0 0.0
2018-Apr-18 00:30N 40°35' W 074°12'0 0.0
2018-Apr-18 00:00N 40°35' W 074°12'0 0.0
2018-Apr-17 23:29N 40°35' W 074°12'1 1.4
2018-Apr-17 23:00N 40°35' W 074°13'0 0.0
2018-Apr-17 22:29N 40°35' W 074°13'1 2.6
2018-Apr-17 22:00N 40°36' W 074°12'3 3.4
2018-Apr-17 21:00N 40°39' W 074°09'1 3.0
2018-Apr-17 20:30N 40°40' W 074°08'0 0.1
2018-Apr-17 20:00N 40°40' W 074°08'0 0.0
2018-Apr-17 19:30N 40°40' W 074°08'1 2.2
2018-Apr-17 19:00N 40°39' W 074°09'3 5.1
2018-Apr-17 18:30N 40°39' W 074°06'2 4.6
2018-Apr-17 18:00N 40°40' W 074°03'0 0.1
2018-Apr-17 17:29N 40°40' W 074°03'0 0.1
2018-Apr-17 16:59N 40°40' W 074°03'0 0.1
2018-Apr-17 16:29N 40°40' W 074°03'0 0.0
2018-Apr-17 15:59N 40°40' W 074°03'0 0.1
2018-Apr-17 15:29N 40°40' W 074°03'0 0.0
2018-Apr-17 14:59N 40°40' W 074°03'0 0.1
2018-Apr-17 14:29N 40°40' W 074°03'0 0.1
2018-Apr-17 13:59N 40°40' W 074°03'0 0.0
2018-Apr-17 13:29N 40°40' W 074°03'0 0.0
2018-Apr-17 12:59N 40°40' W 074°03'0 0.0
2018-Apr-17 12:29N 40°40' W 074°03'0 0.1
2018-Apr-17 11:59N 40°40' W 074°03'0 0.1
2018-Apr-17 11:29N 40°40' W 074°03'0 0.0
2018-Apr-17 10:59N 40°40' W 074°03'0 0.1
2018-Apr-17 10:29N 40°40' W 074°03'0 0.1
2018-Apr-17 09:59N 40°40' W 074°03'0 0.0
2018-Apr-17 09:29N 40°40' W 074°03'0 0.1
2018-Apr-17 08:59N 40°40' W 074°03'0 0.0
2018-Apr-17 08:29N 40°40' W 074°03'0 0.0
2018-Apr-17 07:59N 40°40' W 074°03'0 0.0
2018-Apr-17 07:29N 40°40' W 074°03'0 0.0
2018-Apr-17 06:59N 40°40' W 074°03'0 0.0
2018-Apr-17 06:29N 40°40' W 074°03'0 0.0
2018-Apr-17 05:59N 40°40' W 074°03'0 0.1
2018-Apr-17 05:29N 40°40' W 074°03'0 0.0
2018-Apr-17 04:59N 40°40' W 074°03'0 0.2
2018-Apr-17 04:29N 40°40' W 074°03'0 0.1
2018-Apr-17 03:59N 40°40' W 074°03'0 0.0
2018-Apr-17 03:29N 40°40' W 074°03'0 0.0
2018-Apr-17 02:59N 40°40' W 074°03'0 0.0
2018-Apr-17 02:29N 40°40' W 074°03'0 0.1
2018-Apr-17 01:59N 40°40' W 074°03'0 0.1
2018-Apr-17 01:29N 40°40' W 074°03'0 0.0
2018-Apr-17 00:59N 40°40' W 074°03'0 0.1
2018-Apr-17 00:29N 40°40' W 074°03'0 0.0
2018-Apr-16 23:59N 40°40' W 074°03'0 0.0
2018-Apr-16 23:29N 40°40' W 074°03'0 0.0
2018-Apr-16 22:59N 40°40' W 074°03'0 0.0
2018-Apr-16 22:29N 40°40' W 074°03'0 0.2
2018-Apr-16 21:59N 40°40' W 074°03'0 0.3
2018-Apr-16 21:29N 40°40' W 074°03'0 0.1
2018-Apr-16 20:59N 40°40' W 074°03'2 3.2
2018-Apr-16 20:30N 40°41' W 074°02'611.2
2018-Apr-16 20:00N 40°46' W 074°00'1 1.9
2018-Apr-16 19:30N 40°47' W 073°60'0 0.0
2018-Apr-16 18:56N 40°47' W 073°60'0 0.0
2018-Apr-16 18:29N 40°47' W 073°60'0 0.0
2018-Apr-16 17:59N 40°47' W 073°60'0 0.0
2018-Apr-16 17:29N 40°47' W 073°60'0 0.1
2018-Apr-16 16:53N 40°47' W 073°60'0 0.5
2018-Apr-16 16:29N 40°48' W 073°59'0 0.2
2018-Apr-16 15:59N 40°47' W 073°60'0 0.3
2018-Apr-16 15:29N 40°47' W 073°59'0 0.1
2018-Apr-16 14:59N 40°48' W 073°59'0 0.1
2018-Apr-16 14:29N 40°47' W 073°59'0 0.0
2018-Apr-16 13:59N 40°47' W 073°59'0 0.0
2018-Apr-16 13:26N 40°47' W 073°59'0 0.3
2018-Apr-16 12:59N 40°47' W 073°60'0 0.1
2018-Apr-16 12:29N 40°47' W 073°60'0 0.1
2018-Apr-16 11:56N 40°47' W 073°60'0 0.1
2018-Apr-16 11:29N 40°47' W 073°60'0 0.0
2018-Apr-16 10:59N 40°47' W 073°60'0 0.0
2018-Apr-16 10:29N 40°47' W 073°60'0 0.0
2018-Apr-16 09:59N 40°47' W 073°60'0 0.1
2018-Apr-16 09:29N 40°47' W 073°60'0 0.0
2018-Apr-16 08:59N 40°47' W 073°60'0 0.0
2018-Apr-16 08:29N 40°47' W 073°60'0 0.0
2018-Apr-16 07:59N 40°47' W 073°60'0 0.0
2018-Apr-16 07:29N 40°47' W 073°60'0 0.0
2018-Apr-16 06:59N 40°47' W 073°60'0 0.0
2018-Apr-16 06:29N 40°47' W 073°60'0 0.0
2018-Apr-16 05:59N 40°47' W 073°60'0 0.0
2018-Apr-16 05:29N 40°47' W 073°60'0 0.0
2018-Apr-16 04:59N 40°47' W 073°60'0 0.1
2018-Apr-16 04:29N 40°47' W 073°60'0 0.0
2018-Apr-16 03:59N 40°47' W 073°60'0 0.4
2018-Apr-16 03:29N 40°47' W 073°59'0 0.1
2018-Apr-16 02:59N 40°47' W 073°59'0 0.0
2018-Apr-16 02:29N 40°48' W 073°59'0 0.0
2018-Apr-16 01:59N 40°47' W 073°59'0 0.0
2018-Apr-16 01:29N 40°48' W 073°59'0 0.0
2018-Apr-16 00:59N 40°47' W 073°59'0 0.1
2018-Apr-16 00:29N 40°48' W 073°59'0 0.2
2018-Apr-15 23:59N 40°47' W 073°60'0 0.2
2018-Apr-15 23:29N 40°47' W 073°60'0 0.0
2018-Apr-15 22:59N 40°47' W 073°60'0 0.1
2018-Apr-15 22:29N 40°47' W 073°60'0 0.8
2018-Apr-15 21:58N 40°47' W 073°60'0 0.1
2018-Apr-15 21:28N 40°47' W 073°60'0 0.1
2018-Apr-15 20:58N 40°47' W 073°60'0 0.1
2018-Apr-15 20:28N 40°47' W 073°60'0 0.0
2018-Apr-15 19:58N 40°47' W 073°60'0 0.0
2018-Apr-15 19:28N 40°47' W 073°60'0 0.0
2018-Apr-15 18:58N 40°47' W 073°60'0 0.1
2018-Apr-15 18:28N 40°47' W 073°60'0 0.3
2018-Apr-15 17:58N 40°47' W 073°60'0 0.1
2018-Apr-15 17:25N 40°47' W 073°60'0 0.0
2018-Apr-15 16:58N 40°47' W 073°60'0 0.0
2018-Apr-15 16:28N 40°47' W 073°60'0 0.0
2018-Apr-15 15:58N 40°47' W 073°60'0 0.4
2018-Apr-15 15:28N 40°47' W 073°60'0 0.2
2018-Apr-15 14:58N 40°47' W 073°60'0 0.0
2018-Apr-15 14:28N 40°47' W 073°60'0 0.0
2018-Apr-15 13:58N 40°47' W 073°60'0 0.0
2018-Apr-15 13:25N 40°47' W 073°60'0 0.0
2018-Apr-15 12:58N 40°47' W 073°60'0 0.0
2018-Apr-15 12:28N 40°47' W 073°60'0 0.3
2018-Apr-15 11:58N 40°47' W 073°60'0 0.1
2018-Apr-15 11:28N 40°47' W 073°60'0 0.1
2018-Apr-15 10:58N 40°47' W 073°60'0 0.0
2018-Apr-15 10:28N 40°47' W 073°60'0 0.0
2018-Apr-15 09:58N 40°47' W 073°60'0 0.1
2018-Apr-15 09:28N 40°47' W 073°60'0 0.0
2018-Apr-15 08:58N 40°47' W 073°60'0 0.0
2018-Apr-15 08:28N 40°47' W 073°60'0 0.0
2018-Apr-15 07:58N 40°47' W 073°60'0 0.0
2018-Apr-15 07:28N 40°47' W 073°60'0 0.0
2018-Apr-15 06:58N 40°47' W 073°60'0 0.0
2018-Apr-15 06:28N 40°47' W 073°60'0 0.0
2018-Apr-15 06:00N 40°47' W 073°60'1 2.6
2018-Apr-15 05:30N 40°48' W 073°59'510.5
2018-Apr-15 05:00N 40°53' W 073°56'5 9.9
2018-Apr-15 04:30N 40°58' W 073°54'2 0.1
2018-Apr-13 19:43N 40°60' W 073°53'2 6.6
2018-Apr-13 19:26N 40°58' W 073°54'3 6.6
2018-Apr-13 19:00N 40°55' W 073°55'3 6.4
2018-Apr-13 18:30N 40°52' W 073°56'3 6.1
2018-Apr-13 18:00N 40°49' W 073°58'3 5.9
2018-Apr-13 17:30N 40°47' W 073°60'3 6.1
2018-Apr-13 17:00N 40°44' W 074°01'3 6.7
2018-Apr-13 16:30N 40°41' W 074°02'3 6.9
2018-Apr-13 16:00N 40°39' W 074°06'4 8.2
2018-Apr-13 15:30N 40°39' W 074°11'2 3.8
2018-Apr-13 15:00N 40°37' W 074°12'1 2.7
2018-Apr-13 14:30N 40°35' W 074°12'0 0.0
2018-Apr-13 13:57N 40°35' W 074°12'0 0.0
2018-Apr-13 13:18N 40°35' W 074°12'0 0.0
2018-Apr-13 13:00N 40°35' W 074°12'0 0.0
2018-Apr-13 12:30N 40°35' W 074°12'0 0.0
2018-Apr-13 11:55N 40°35' W 074°12'0 0.0
2018-Apr-13 11:30N 40°35' W 074°12'0 0.0
2018-Apr-13 10:58N 40°35' W 074°12'0 0.0
2018-Apr-13 10:27N 40°35' W 074°12'0 0.0
2018-Apr-13 10:00N 40°35' W 074°12'0 0.0
2018-Apr-13 09:31N 40°35' W 074°12'0 0.0
2018-Apr-13 08:57N 40°35' W 074°12'0 0.0
2018-Apr-13 08:30N 40°35' W 074°12'0 0.0
2018-Apr-13 07:57N 40°35' W 074°12'0 0.0
2018-Apr-13 07:30N 40°35' W 074°12'0 0.0
2018-Apr-13 07:00N 40°35' W 074°12'0 0.0
2018-Apr-13 06:27N 40°35' W 074°12'0 0.0
2018-Apr-13 06:00N 40°35' W 074°12'0 0.0
2018-Apr-13 05:30N 40°35' W 074°12'0 0.0
2018-Apr-13 05:00N 40°35' W 074°12'0 0.0
2018-Apr-13 04:30N 40°35' W 074°12'0 0.0
2018-Apr-13 03:55N 40°35' W 074°12'0 0.0
2018-Apr-13 03:30N 40°35' W 074°12'0 0.0
2018-Apr-13 02:57N 40°35' W 074°12'0 0.0
2018-Apr-13 02:28N 40°35' W 074°12'0 0.0
2018-Apr-13 01:57N 40°35' W 074°12'0 0.0
2018-Apr-13 01:30N 40°35' W 074°12'0 0.0
2018-Apr-13 00:54N 40°35' W 074°12'0 0.0
2018-Apr-13 00:27N 40°35' W 074°12'0 0.0
2018-Apr-12 23:54N 40°35' W 074°12'0 0.0
2018-Apr-12 23:30N 40°35' W 074°12'0 0.0
2018-Apr-12 22:57N 40°35' W 074°12'  
Track history (hours):
 
Tides and Currents Weather Stations Pressure Air Temp Water Temp Dewpoint Dewpoint Depression Visibility Wind Speed Wind Dir Waves Ship Positions

Haggerty Girls

Owner: REINAUER TRANSPORTATION CO.,LLC, STATEN ISLAND, NY. More information available from US FCC via Universal Licensing System and Coast Guard Vessel Documentation Center.

Last reported at 2018-Apr-22 22:52 UTC. Time now 2018-Apr-24 02:22 UTC.
Position N 40°49' W 073°58'.

Length 146 m; draft 7.5 m.

Type: . MMSI: 367590780.

Date/timePositionNaut miles runAvg speedWind from/ knotsBaromVisibWave heightAir tempDewpointWater temp
2018-Apr-22 22:52N 40°49' W 073°58'3 8.2
2018-Apr-22 22:30N 40°47' W 074°00'4 8.2
2018-Apr-22 22:00N 40°43' W 074°01'4 8.4
2018-Apr-22 21:30N 40°39' W 074°04'1 2.0
2018-Apr-22 21:00N 40°39' W 074°05'0 0.0
2018-Apr-22 20:30N 40°39' W 074°05'0 0.0
2018-Apr-22 20:00N 40°39' W 074°05'0 0.0
2018-Apr-22 19:30N 40°39' W 074°05'0 0.0
2018-Apr-22 19:00N 40°39' W 074°05'0 0.0
2018-Apr-22 18:30N 40°39' W 074°05'1 1.5
2018-Apr-22 18:00N 40°39' W 074°06'1 2.5
2018-Apr-22 17:25N 40°38' W 074°08'0 0.0
2018-Apr-22 16:58N 40°38' W 074°08'0 0.0
2018-Apr-22 16:29N 40°38' W 074°08'2 4.1
2018-Apr-22 15:58N 40°39' W 074°05'0 0.0
2018-Apr-22 15:28N 40°39' W 074°05'0 0.0
2018-Apr-22 14:58N 40°39' W 074°05'0 0.0
2018-Apr-22 14:28N 40°39' W 074°05'0 0.0
2018-Apr-22 13:58N 40°39' W 074°05'0 0.0
2018-Apr-22 13:28N 40°39' W 074°05'0 0.0
2018-Apr-22 12:58N 40°39' W 074°05'0 0.0
2018-Apr-22 12:28N 40°39' W 074°05'0 0.0
2018-Apr-22 11:58N 40°39' W 074°05'0 0.0
2018-Apr-22 11:28N 40°39' W 074°05'0 0.0
2018-Apr-22 10:58N 40°39' W 074°05'0 0.0
2018-Apr-22 10:28N 40°39' W 074°05'0 0.0
2018-Apr-22 09:58N 40°39' W 074°05'0 0.0
2018-Apr-22 09:28N 40°39' W 074°05'0 0.0
2018-Apr-22 08:58N 40°39' W 074°05'0 0.0
2018-Apr-22 08:28N 40°39' W 074°05'0 0.0
2018-Apr-22 07:58N 40°39' W 074°05'0 0.0
2018-Apr-22 07:28N 40°39' W 074°05'0 0.0
2018-Apr-22 06:58N 40°39' W 074°05'0 0.0
2018-Apr-22 06:28N 40°39' W 074°05'0 0.0
2018-Apr-22 05:58N 40°39' W 074°05'0 0.0
2018-Apr-22 05:28N 40°39' W 074°05'0 0.0
2018-Apr-22 04:58N 40°39' W 074°05'0 0.0
2018-Apr-22 04:28N 40°39' W 074°05'0 0.0
2018-Apr-22 03:58N 40°39' W 074°05'0 0.0
2018-Apr-22 03:28N 40°39' W 074°05'0 0.0
2018-Apr-22 02:58N 40°39' W 074°05'0 0.0
2018-Apr-22 02:28N 40°39' W 074°05'0 0.0
2018-Apr-22 01:58N 40°39' W 074°05'0 0.0
2018-Apr-22 01:28N 40°39' W 074°05'0 0.0
2018-Apr-22 00:58N 40°39' W 074°05'0 0.0
2018-Apr-22 00:28N 40°39' W 074°05'0 0.0
2018-Apr-21 23:58N 40°39' W 074°05'0 0.0
2018-Apr-21 23:28N 40°39' W 074°05'0 0.0
2018-Apr-21 22:58N 40°39' W 074°05'0 0.0
2018-Apr-21 22:31N 40°39' W 074°05'0 0.0
2018-Apr-21 21:58N 40°39' W 074°05'0 0.0
2018-Apr-21 21:28N 40°39' W 074°05'0 0.0
2018-Apr-21 20:58N 40°39' W 074°05'0 0.0
2018-Apr-21 20:28N 40°39' W 074°05'0 0.0
2018-Apr-21 19:58N 40°39' W 074°05'0 0.0
2018-Apr-21 19:28N 40°39' W 074°05'0 0.0
2018-Apr-21 18:58N 40°39' W 074°05'0 0.0
2018-Apr-21 18:31N 40°39' W 074°05'0 0.0
2018-Apr-21 17:58N 40°39' W 074°05'0 0.0
2018-Apr-21 17:28N 40°39' W 074°05'0 0.0
2018-Apr-21 17:01N 40°39' W 074°05'0 0.0
2018-Apr-21 16:31N 40°39' W 074°05'0 0.0
2018-Apr-21 16:01N 40°39' W 074°05'0 0.0
2018-Apr-21 15:28N 40°39' W 074°05'0 0.0
2018-Apr-21 15:00N 40°39' W 074°05'0 0.0
2018-Apr-21 14:31N 40°39' W 074°05'0 0.0
2018-Apr-21 14:00N 40°39' W 074°05'0 0.0
2018-Apr-21 13:28N 40°39' W 074°05'0 0.0
2018-Apr-21 12:58N 40°39' W 074°05'0 0.0
2018-Apr-21 12:28N 40°39' W 074°05'0 0.0
2018-Apr-21 11:58N 40°39' W 074°05'0 0.0
2018-Apr-21 11:28N 40°39' W 074°05'0 0.0
2018-Apr-21 11:00N 40°39' W 074°05'0 0.0
2018-Apr-21 10:27N 40°39' W 074°05'0 0.0
2018-Apr-21 09:58N 40°39' W 074°05'0 0.0
2018-Apr-21 09:31N 40°39' W 074°05'0 0.0
2018-Apr-21 09:01N 40°39' W 074°05'0 0.0
2018-Apr-21 08:30N 40°39' W 074°05'0 0.0
2018-Apr-21 07:58N 40°39' W 074°05'0 0.0
2018-Apr-21 07:28N 40°39' W 074°05'0 0.0
2018-Apr-21 06:57N 40°39' W 074°05'0 0.0
2018-Apr-21 06:31N 40°39' W 074°05'0 0.0
2018-Apr-21 05:58N 40°39' W 074°05'0 0.0
2018-Apr-21 05:31N 40°39' W 074°05'0 0.0
2018-Apr-21 05:01N 40°39' W 074°05'0 0.0
2018-Apr-21 04:28N 40°39' W 074°05'0 0.0
2018-Apr-21 04:01N 40°39' W 074°05'0 0.0
2018-Apr-21 03:30N 40°39' W 074°05'0 0.0
2018-Apr-21 02:57N 40°39' W 074°05'0 0.0
2018-Apr-21 02:30N 40°39' W 074°05'0 0.0
2018-Apr-21 02:00N 40°39' W 074°05'0 0.0
2018-Apr-21 01:30N 40°39' W 074°05'0 0.0
2018-Apr-21 01:00N 40°39' W 074°05'0 0.0
2018-Apr-21 00:30N 40°39' W 074°05'0 0.0
2018-Apr-21 00:00N 40°39' W 074°05'0 0.0
2018-Apr-20 23:30N 40°39' W 074°05'0 0.0
2018-Apr-20 23:00N 40°39' W 074°05'1 1.2
2018-Apr-20 22:30N 40°39' W 074°04'2 4.2
2018-Apr-20 22:00N 40°40' W 074°02'0 0.0
2018-Apr-20 21:30N 40°40' W 074°02'0 0.2
2018-Apr-20 21:01N 40°40' W 074°02'3 5.8
2018-Apr-20 20:30N 40°39' W 074°06'3 5.1
2018-Apr-20 20:00N 40°39' W 074°09'1 1.8
2018-Apr-20 19:30N 40°38' W 074°08'0 0.0
2018-Apr-20 19:00N 40°38' W 074°08'0 0.0
2018-Apr-20 18:30N 40°38' W 074°08'0 0.0
2018-Apr-20 18:00N 40°38' W 074°08'0 0.0
2018-Apr-20 17:30N 40°38' W 074°08'0 0.0
2018-Apr-20 17:00N 40°38' W 074°08'0 0.0
2018-Apr-20 16:30N 40°38' W 074°08'0 0.0
2018-Apr-20 16:00N 40°38' W 074°08'2 3.0
2018-Apr-20 15:30N 40°39' W 074°06'3 6.0
2018-Apr-20 14:57N 40°40' W 074°02'0 0.0
2018-Apr-20 14:30N 40°40' W 074°02'0 0.1
2018-Apr-20 14:00N 40°40' W 074°02'0 0.0
2018-Apr-20 13:27N 40°40' W 074°02'0 0.0
2018-Apr-20 13:00N 40°40' W 074°02'0 0.0
2018-Apr-20 12:30N 40°40' W 074°02'0 0.0
2018-Apr-20 12:00N 40°40' W 074°02'0 0.0
2018-Apr-20 11:30N 40°40' W 074°02'0 0.0
2018-Apr-20 11:00N 40°40' W 074°02'0 0.0
2018-Apr-20 10:30N 40°40' W 074°02'0 0.0
2018-Apr-20 10:00N 40°40' W 074°02'0 0.0
2018-Apr-20 09:30N 40°40' W 074°02'0 0.0
2018-Apr-20 09:00N 40°40' W 074°02'0 0.0
2018-Apr-20 08:30N 40°40' W 074°02'0 0.0
2018-Apr-20 08:00N 40°40' W 074°02'0 0.1
2018-Apr-20 07:30N 40°40' W 074°02'0 0.1
2018-Apr-20 07:00N 40°40' W 074°02'3 5.9
2018-Apr-20 06:30N 40°43' W 074°01'5 9.6
2018-Apr-20 06:00N 40°48' W 073°59'4 8.9
2018-Apr-20 05:30N 40°52' W 073°57'4 8.4
2018-Apr-20 04:59N 40°56' W 073°55'2 0.1
2018-Apr-19 00:43N 40°57' W 073°54'2 9.6
2018-Apr-19 00:29N 40°55' W 073°55'5 9.2
2018-Apr-19 00:00N 40°51' W 073°57'4 8.8
2018-Apr-18 23:30N 40°47' W 073°60'4 7.7
2018-Apr-18 23:00N 40°43' W 074°01'4 7.5
2018-Apr-18 22:30N 40°40' W 074°03'3 6.9
2018-Apr-18 22:00N 40°39' W 074°07'4 7.3
2018-Apr-18 21:30N 40°38' W 074°12'3 5.2
2018-Apr-18 20:59N 40°35' W 074°12'0 0.0
2018-Apr-18 20:30N 40°35' W 074°12'0 0.0
2018-Apr-18 19:59N 40°35' W 074°12'0 0.0
2018-Apr-18 19:30N 40°35' W 074°12'0 0.0
2018-Apr-18 18:58N 40°35' W 074°12'0 0.0
2018-Apr-18 18:29N 40°35' W 074°12'0 0.0
2018-Apr-18 18:00N 40°35' W 074°12'0 0.0
2018-Apr-18 17:30N 40°35' W 074°12'0 0.0
2018-Apr-18 17:00N 40°35' W 074°12'0 0.0
2018-Apr-18 16:30N 40°35' W 074°12'0 0.0
2018-Apr-18 16:00N 40°35' W 074°12'0 0.0
2018-Apr-18 15:30N 40°35' W 074°12'0 0.0
2018-Apr-18 15:00N 40°35' W 074°12'0 0.0
2018-Apr-18 14:30N 40°35' W 074°12'0 0.0
2018-Apr-18 14:00N 40°35' W 074°12'0 0.0
2018-Apr-18 13:30N 40°35' W 074°12'0 0.0
2018-Apr-18 13:00N 40°35' W 074°12'0 0.0
2018-Apr-18 12:30N 40°35' W 074°12'0 0.0
2018-Apr-18 11:59N 40°35' W 074°12'0 0.0
2018-Apr-18 11:30N 40°35' W 074°12'0 0.0
2018-Apr-18 11:00N 40°35' W 074°12'0 0.0
2018-Apr-18 10:30N 40°35' W 074°12'0 0.0
2018-Apr-18 09:59N 40°35' W 074°12'0 0.0
2018-Apr-18 09:29N 40°35' W 074°12'0 0.0
2018-Apr-18 09:00N 40°35' W 074°12'0 0.0
2018-Apr-18 08:30N 40°35' W 074°12'0 0.0
2018-Apr-18 08:00N 40°35' W 074°12'0 0.0
2018-Apr-18 07:30N 40°35' W 074°12'0 0.0
2018-Apr-18 07:00N 40°35' W 074°12'0 0.0
2018-Apr-18 06:29N 40°35' W 074°12'0 0.0
2018-Apr-18 06:00N 40°35' W 074°12'0 0.0
2018-Apr-18 05:29N 40°35' W 074°12'0 0.0
2018-Apr-18 04:57N 40°35' W 074°12'0 0.0
2018-Apr-18 04:29N 40°35' W 074°12'0 0.0
2018-Apr-18 04:00N 40°35' W 074°12'0 0.0
2018-Apr-18 03:30N 40°35' W 074°12'0 0.0
2018-Apr-18 03:00N 40°35' W 074°12'0 0.0
2018-Apr-18 02:30N 40°35' W 074°12'0 0.0
2018-Apr-18 02:00N 40°35' W 074°12'0 0.0
2018-Apr-18 01:30N 40°35' W 074°12'0 0.0
2018-Apr-18 01:00N 40°35' W 074°12'0 0.0
2018-Apr-18 00:30N 40°35' W 074°12'0 0.0
2018-Apr-18 00:00N 40°35' W 074°12'0 0.0
2018-Apr-17 23:29N 40°35' W 074°12'1 1.4
2018-Apr-17 23:00N 40°35' W 074°13'0 0.0
2018-Apr-17 22:29N 40°35' W 074°13'1 2.6
2018-Apr-17 22:00N 40°36' W 074°12'3 3.4
2018-Apr-17 21:00N 40°39' W 074°09'1 3.0
2018-Apr-17 20:30N 40°40' W 074°08'0 0.1
2018-Apr-17 20:00N 40°40' W 074°08'0 0.0
2018-Apr-17 19:30N 40°40' W 074°08'1 2.2
2018-Apr-17 19:00N 40°39' W 074°09'3 5.1
2018-Apr-17 18:30N 40°39' W 074°06'2 4.6
2018-Apr-17 18:00N 40°40' W 074°03'0 0.1
2018-Apr-17 17:29N 40°40' W 074°03'0 0.1
2018-Apr-17 16:59N 40°40' W 074°03'0 0.1
2018-Apr-17 16:29N 40°40' W 074°03'0 0.0
2018-Apr-17 15:59N 40°40' W 074°03'0 0.1
2018-Apr-17 15:29N 40°40' W 074°03'0 0.0
2018-Apr-17 14:59N 40°40' W 074°03'0 0.1
2018-Apr-17 14:29N 40°40' W 074°03'0 0.1
2018-Apr-17 13:59N 40°40' W 074°03'0 0.0
2018-Apr-17 13:29N 40°40' W 074°03'0 0.0
2018-Apr-17 12:59N 40°40' W 074°03'0 0.0
2018-Apr-17 12:29N 40°40' W 074°03'0 0.1
2018-Apr-17 11:59N 40°40' W 074°03'0 0.1
2018-Apr-17 11:29N 40°40' W 074°03'0 0.0
2018-Apr-17 10:59N 40°40' W 074°03'0 0.1
2018-Apr-17 10:29N 40°40' W 074°03'0 0.1
2018-Apr-17 09:59N 40°40' W 074°03'0 0.0
2018-Apr-17 09:29N 40°40' W 074°03'0 0.1
2018-Apr-17 08:59N 40°40' W 074°03'0 0.0
2018-Apr-17 08:29N 40°40' W 074°03'0 0.0
2018-Apr-17 07:59N 40°40' W 074°03'0 0.0
2018-Apr-17 07:29N 40°40' W 074°03'0 0.0
2018-Apr-17 06:59N 40°40' W 074°03'0 0.0
2018-Apr-17 06:29N 40°40' W 074°03'0 0.0
2018-Apr-17 05:59N 40°40' W 074°03'0 0.1
2018-Apr-17 05:29N 40°40' W 074°03'0 0.0
2018-Apr-17 04:59N 40°40' W 074°03'0 0.2
2018-Apr-17 04:29N 40°40' W 074°03'0 0.1
2018-Apr-17 03:59N 40°40' W 074°03'0 0.0
2018-Apr-17 03:29N 40°40' W 074°03'0 0.0
2018-Apr-17 02:59N 40°40' W 074°03'0 0.0
2018-Apr-17 02:29N 40°40' W 074°03'0 0.1
2018-Apr-17 01:59N 40°40' W 074°03'0 0.1
2018-Apr-17 01:29N 40°40' W 074°03'0 0.0
2018-Apr-17 00:59N 40°40' W 074°03'0 0.1
2018-Apr-17 00:29N 40°40' W 074°03'0 0.0
2018-Apr-16 23:59N 40°40' W 074°03'0 0.0
2018-Apr-16 23:29N 40°40' W 074°03'0 0.0
2018-Apr-16 22:59N 40°40' W 074°03'0 0.0
2018-Apr-16 22:29N 40°40' W 074°03'0 0.2
2018-Apr-16 21:59N 40°40' W 074°03'0 0.3
2018-Apr-16 21:29N 40°40' W 074°03'0 0.1
2018-Apr-16 20:59N 40°40' W 074°03'2 3.2
2018-Apr-16 20:30N 40°41' W 074°02'611.2
2018-Apr-16 20:00N 40°46' W 074°00'1 1.9
2018-Apr-16 19:30N 40°47' W 073°60'0 0.0
2018-Apr-16 18:56N 40°47' W 073°60'0 0.0
2018-Apr-16 18:29N 40°47' W 073°60'0 0.0
2018-Apr-16 17:59N 40°47' W 073°60'0 0.0
2018-Apr-16 17:29N 40°47' W 073°60'0 0.1
2018-Apr-16 16:53N 40°47' W 073°60'0 0.5
2018-Apr-16 16:29N 40°48' W 073°59'0 0.2
2018-Apr-16 15:59N 40°47' W 073°60'0 0.3
2018-Apr-16 15:29N 40°47' W 073°59'0 0.1
2018-Apr-16 14:59N 40°48' W 073°59'0 0.1
2018-Apr-16 14:29N 40°47' W 073°59'0 0.0
2018-Apr-16 13:59N 40°47' W 073°59'0 0.0
2018-Apr-16 13:26N 40°47' W 073°59'0 0.3
2018-Apr-16 12:59N 40°47' W 073°60'0 0.1
2018-Apr-16 12:29N 40°47' W 073°60'0 0.1
2018-Apr-16 11:56N 40°47' W 073°60'0 0.1
2018-Apr-16 11:29N 40°47' W 073°60'0 0.0
2018-Apr-16 10:59N 40°47' W 073°60'0 0.0
2018-Apr-16 10:29N 40°47' W 073°60'0 0.0
2018-Apr-16 09:59N 40°47' W 073°60'0 0.1
2018-Apr-16 09:29N 40°47' W 073°60'0 0.0
2018-Apr-16 08:59N 40°47' W 073°60'0 0.0
2018-Apr-16 08:29N 40°47' W 073°60'0 0.0
2018-Apr-16 07:59N 40°47' W 073°60'0 0.0
2018-Apr-16 07:29N 40°47' W 073°60'0 0.0
2018-Apr-16 06:59N 40°47' W 073°60'0 0.0
2018-Apr-16 06:29N 40°47' W 073°60'0 0.0
2018-Apr-16 05:59N 40°47' W 073°60'0 0.0
2018-Apr-16 05:29N 40°47' W 073°60'0 0.0
2018-Apr-16 04:59N 40°47' W 073°60'0 0.1
2018-Apr-16 04:29N 40°47' W 073°60'0 0.0
2018-Apr-16 03:59N 40°47' W 073°60'0 0.4
2018-Apr-16 03:29N 40°47' W 073°59'0 0.1
2018-Apr-16 02:59N 40°47' W 073°59'0 0.0
2018-Apr-16 02:29N 40°48' W 073°59'0 0.0
2018-Apr-16 01:59N 40°47' W 073°59'0 0.0
2018-Apr-16 01:29N 40°48' W 073°59'0 0.0
2018-Apr-16 00:59N 40°47' W 073°59'0 0.1
2018-Apr-16 00:29N 40°48' W 073°59'0 0.2
2018-Apr-15 23:59N 40°47' W 073°60'0 0.2
2018-Apr-15 23:29N 40°47' W 073°60'0 0.0
2018-Apr-15 22:59N 40°47' W 073°60'0 0.1
2018-Apr-15 22:29N 40°47' W 073°60'0 0.8
2018-Apr-15 21:58N 40°47' W 073°60'0 0.1
2018-Apr-15 21:28N 40°47' W 073°60'0 0.1
2018-Apr-15 20:58N 40°47' W 073°60'0 0.1
2018-Apr-15 20:28N 40°47' W 073°60'0 0.0
2018-Apr-15 19:58N 40°47' W 073°60'0 0.0
2018-Apr-15 19:28N 40°47' W 073°60'0 0.0
2018-Apr-15 18:58N 40°47' W 073°60'0 0.1
2018-Apr-15 18:28N 40°47' W 073°60'0 0.3
2018-Apr-15 17:58N 40°47' W 073°60'0 0.1
2018-Apr-15 17:25N 40°47' W 073°60'0 0.0
2018-Apr-15 16:58N 40°47' W 073°60'0 0.0
2018-Apr-15 16:28N 40°47' W 073°60'0 0.0
2018-Apr-15 15:58N 40°47' W 073°60'0 0.4
2018-Apr-15 15:28N 40°47' W 073°60'0 0.2
2018-Apr-15 14:58N 40°47' W 073°60'0 0.0
2018-Apr-15 14:28N 40°47' W 073°60'0 0.0
2018-Apr-15 13:58N 40°47' W 073°60'0 0.0
2018-Apr-15 13:25N 40°47' W 073°60'0 0.0
2018-Apr-15 12:58N 40°47' W 073°60'0 0.0
2018-Apr-15 12:28N 40°47' W 073°60'0 0.3
2018-Apr-15 11:58N 40°47' W 073°60'0 0.1
2018-Apr-15 11:28N 40°47' W 073°60'0 0.1
2018-Apr-15 10:58N 40°47' W 073°60'0 0.0
2018-Apr-15 10:28N 40°47' W 073°60'0 0.0
2018-Apr-15 09:58N 40°47' W 073°60'0 0.1
2018-Apr-15 09:28N 40°47' W 073°60'0 0.0
2018-Apr-15 08:58N 40°47' W 073°60'0 0.0
2018-Apr-15 08:28N 40°47' W 073°60'0 0.0
2018-Apr-15 07:58N 40°47' W 073°60'0 0.0
2018-Apr-15 07:28N 40°47' W 073°60'0 0.0
2018-Apr-15 06:58N 40°47' W 073°60'0 0.0
2018-Apr-15 06:28N 40°47' W 073°60'0 0.0
2018-Apr-15 06:00N 40°47' W 073°60'1 2.6
2018-Apr-15 05:30N 40°48' W 073°59'510.5
2018-Apr-15 05:00N 40°53' W 073°56'5 9.9
2018-Apr-15 04:30N 40°58' W 073°54'2 0.1
2018-Apr-13 19:43N 40°60' W 073°53'2 6.6
2018-Apr-13 19:26N 40°58' W 073°54'3 6.6
2018-Apr-13 19:00N 40°55' W 073°55'3 6.4
2018-Apr-13 18:30N 40°52' W 073°56'3 6.1
2018-Apr-13 18:00N 40°49' W 073°58'3 5.9
2018-Apr-13 17:30N 40°47' W 073°60'3 6.1
2018-Apr-13 17:00N 40°44' W 074°01'3 6.7
2018-Apr-13 16:30N 40°41' W 074°02'3 6.9
2018-Apr-13 16:00N 40°39' W 074°06'4 8.2
2018-Apr-13 15:30N 40°39' W 074°11'2 3.8
2018-Apr-13 15:00N 40°37' W 074°12'1 2.7
2018-Apr-13 14:30N 40°35' W 074°12'0 0.0
2018-Apr-13 13:57N 40°35' W 074°12'0 0.0
2018-Apr-13 13:18N 40°35' W 074°12'0 0.0
2018-Apr-13 13:00N 40°35' W 074°12'0 0.0
2018-Apr-13 12:30N 40°35' W 074°12'0 0.0
2018-Apr-13 11:55N 40°35' W 074°12'0 0.0
2018-Apr-13 11:30N 40°35' W 074°12'0 0.0
2018-Apr-13 10:58N 40°35' W 074°12'0 0.0
2018-Apr-13 10:27N 40°35' W 074°12'0 0.0
2018-Apr-13 10:00N 40°35' W 074°12'0 0.0
2018-Apr-13 09:31N 40°35' W 074°12'0 0.0
2018-Apr-13 08:57N 40°35' W 074°12'0 0.0
2018-Apr-13 08:30N 40°35' W 074°12'0 0.0
2018-Apr-13 07:57N 40°35' W 074°12'0 0.0
2018-Apr-13 07:30N 40°35' W 074°12'0 0.0
2018-Apr-13 07:00N 40°35' W 074°12'0 0.0
2018-Apr-13 06:27N 40°35' W 074°12'0 0.0
2018-Apr-13 06:00N 40°35' W 074°12'0 0.0
2018-Apr-13 05:30N 40°35' W 074°12'0 0.0
2018-Apr-13 05:00N 40°35' W 074°12'0 0.0
2018-Apr-13 04:30N 40°35' W 074°12'0 0.0
2018-Apr-13 03:55N 40°35' W 074°12'0 0.0
2018-Apr-13 03:30N 40°35' W 074°12'0 0.0
2018-Apr-13 02:57N 40°35' W 074°12'0 0.0
2018-Apr-13 02:28N 40°35' W 074°12'0 0.0
2018-Apr-13 01:57N 40°35' W 074°12'0 0.0
2018-Apr-13 01:30N 40°35' W 074°12'0 0.0
2018-Apr-13 00:54N 40°35' W 074°12'0 0.0
2018-Apr-13 00:27N 40°35' W 074°12'0 0.0
2018-Apr-12 23:54N 40°35' W 074°12'0 0.0
2018-Apr-12 23:30N 40°35' W 074°12'0 0.0
2018-Apr-12 22:57N 40°35' W 074°12'  

Dump ship's entire track history